createdAt,value
2018-03-26T00:01:02.261Z,1.90
2018-03-26T00:03:29.765Z,1.80
2018-03-26T00:05:57.297Z,1.90
2018-03-26T00:08:25.533Z,1.80
2018-03-26T00:10:53.133Z,1.70
2018-03-26T00:13:21.373Z,1.70
2018-03-26T00:15:48.879Z,1.70
2018-03-26T00:18:16.362Z,1.60
2018-03-26T00:20:43.882Z,1.70
2018-03-26T00:23:12.145Z,1.70
2018-03-26T00:25:40.430Z,1.70
2018-03-26T00:28:08.697Z,1.80
2018-03-26T00:30:37.278Z,1.80
2018-03-26T00:33:05.815Z,1.90
2018-03-26T00:35:33.322Z,1.90
2018-03-26T00:38:00.886Z,1.80
2018-03-26T00:40:29.167Z,1.80
2018-03-26T00:42:57.417Z,1.70
2018-03-26T00:45:24.904Z,1.70
2018-03-26T00:47:52.400Z,1.70
2018-03-26T00:50:19.914Z,1.60
2018-03-26T00:52:48.181Z,1.50
2018-03-26T00:55:16.467Z,1.40
2018-03-26T00:57:44.713Z,1.40
2018-03-26T01:00:12.214Z,1.40
2018-03-26T01:02:39.705Z,1.30
2018-03-26T01:05:07.209Z,1.40
2018-03-26T01:07:35.456Z,1.20
2018-03-26T01:10:02.934Z,1.20
2018-03-26T01:12:31.198Z,1.10
2018-03-26T01:14:58.681Z,1.10
2018-03-26T01:17:26.945Z,1.10
2018-03-26T01:19:55.202Z,1.00
2018-03-26T01:22:22.690Z,1.00
2018-03-26T01:24:50.953Z,1.00
2018-03-26T01:27:19.202Z,1.00
2018-03-26T01:29:46.709Z,1.00
2018-03-26T01:32:14.190Z,1.00
2018-03-26T01:34:41.669Z,1.10
2018-03-26T01:37:09.270Z,1.10
2018-03-26T01:39:37.520Z,0.90
2018-03-26T01:42:05.017Z,0.90
2018-03-26T01:44:32.562Z,0.90
2018-03-26T01:47:00.837Z,0.70
2018-03-26T01:49:29.102Z,0.80
2018-03-26T01:51:57.349Z,0.70
2018-03-26T01:54:24.852Z,0.60
2018-03-26T01:56:53.101Z,0.70
2018-03-26T01:59:20.578Z,0.60
2018-03-26T02:01:48.090Z,0.70
2018-03-26T02:04:15.841Z,0.70
2018-03-26T02:06:43.354Z,0.70
2018-03-26T02:09:11.597Z,0.60
2018-03-26T02:11:39.090Z,0.60
2018-03-26T02:14:07.353Z,0.50
2018-03-26T02:16:35.645Z,0.60
2018-03-26T02:19:03.912Z,0.40
2018-03-26T02:21:32.152Z,0.40
2018-03-26T02:23:59.633Z,0.40
2018-03-26T02:26:27.124Z,0.50
2018-03-26T02:28:54.602Z,0.30
2018-03-26T02:31:22.127Z,0.30
2018-03-26T02:33:50.374Z,0.10
2018-03-26T02:36:17.854Z,0.10
2018-03-26T02:38:46.117Z,0.00
2018-03-26T02:41:14.369Z,0.10
2018-03-26T02:43:41.982Z,0.10
2018-03-26T02:46:09.726Z,0.20
2018-03-26T02:48:37.970Z,0.00
2018-03-26T02:51:05.464Z,0.00
2018-03-26T02:53:33.017Z,0.10
2018-03-26T02:56:01.305Z,0.10
2018-03-26T02:58:28.855Z,0.10
2018-03-26T03:00:57.104Z,0.00
2018-03-26T03:03:24.597Z,0.00
2018-03-26T03:05:52.982Z,0.10
2018-03-26T03:08:20.524Z,0.10
2018-03-26T03:10:48.808Z,0.00
2018-03-26T03:13:17.058Z,0.00
2018-03-26T03:15:44.549Z,0.00
2018-03-26T03:18:12.030Z,0.10
2018-03-26T03:20:39.797Z,-0.10
2018-03-26T03:23:07.342Z,0.00
2018-03-26T03:25:34.869Z,-0.10
2018-03-26T03:28:03.133Z,-0.10
2018-03-26T03:30:30.709Z,-0.20
2018-03-26T03:32:58.981Z,-0.10
2018-03-26T03:35:27.229Z,-0.10
2018-03-26T03:37:55.394Z,-0.20
2018-03-26T03:40:24.253Z,-0.10
2018-03-26T03:42:52.466Z,-0.10
2018-03-26T03:45:20.728Z,-0.20
2018-03-26T03:47:48.229Z,-0.20
2018-03-26T03:50:16.469Z,-0.30
2018-03-26T03:52:44.057Z,-0.30
2018-03-26T03:55:12.302Z,-0.30
2018-03-26T03:57:39.805Z,-0.30
2018-03-26T04:00:08.061Z,-0.50
2018-03-26T04:02:35.538Z,-0.50
2018-03-26T04:05:04.054Z,-0.50
2018-03-26T04:07:31.537Z,-0.50
2018-03-26T04:09:59.178Z,-0.50
2018-03-26T04:12:26.618Z,-0.50
2018-03-26T04:14:54.100Z,-0.40
2018-03-26T04:17:21.598Z,-0.40
2018-03-26T04:19:49.872Z,-0.30
2018-03-26T04:22:18.141Z,-0.30
2018-03-26T04:24:45.617Z,-0.40
2018-03-26T04:27:16.231Z,-0.50
2018-03-26T04:29:44.517Z,-0.60
2018-03-26T04:32:12.769Z,-0.60
2018-03-26T04:34:40.269Z,-0.60
2018-03-26T04:37:07.801Z,-0.50
2018-03-26T04:39:36.090Z,-0.60
2018-03-26T04:42:06.570Z,-0.80
2018-03-26T04:44:35.517Z,-0.70
2018-03-26T04:47:03.869Z,-0.70
2018-03-26T04:49:31.372Z,-0.70
2018-03-26T04:51:58.870Z,-0.70
2018-03-26T04:54:26.361Z,-0.60
2018-03-26T04:56:54.606Z,-0.40
2018-03-26T04:59:22.110Z,-0.40
2018-03-26T05:01:49.589Z,-0.50
2018-03-26T05:04:17.104Z,-0.50
2018-03-26T05:06:45.369Z,-0.40
2018-03-26T05:09:13.649Z,-0.40
2018-03-26T05:11:41.913Z,-0.40
2018-03-26T05:14:09.389Z,-0.40
2018-03-26T05:16:37.637Z,-0.10
2018-03-26T05:19:05.138Z,-0.10
2018-03-26T05:21:32.682Z,-0.10
2018-03-26T05:24:00.232Z,0.00
2018-03-26T05:26:28.474Z,0.20
2018-03-26T05:28:55.949Z,0.10
2018-03-26T05:31:23.522Z,0.30
2018-03-26T05:33:52.209Z,0.50
2018-03-26T05:36:20.893Z,0.50
2018-03-26T05:38:49.517Z,0.40
2018-03-26T05:41:16.992Z,0.60
2018-03-26T05:43:44.485Z,0.70
2018-03-26T05:46:13.101Z,0.70
2018-03-26T05:48:41.413Z,0.80
2018-03-26T05:51:08.898Z,0.90
2018-03-26T05:53:36.466Z,1.00
2018-03-26T05:56:05.401Z,0.90
2018-03-26T05:58:32.917Z,1.10
2018-03-26T06:01:01.558Z,1.00
2018-03-26T06:03:29.049Z,0.90
2018-03-26T06:05:57.666Z,1.10
2018-03-26T06:08:25.161Z,1.20
2018-03-26T06:10:52.647Z,1.30
2018-03-26T06:13:21.294Z,0.70
2018-03-26T06:15:50.952Z,0.50
2018-03-26T06:18:19.585Z,0.50
2018-03-26T06:20:47.078Z,0.60
2018-03-26T06:23:14.561Z,0.60
2018-03-26T06:25:42.065Z,0.80
2018-03-26T06:28:09.554Z,0.60
2018-03-26T06:30:38.227Z,0.90
2018-03-26T06:33:05.677Z,0.80
2018-03-26T06:35:33.157Z,0.90
2018-03-26T06:51:22.453Z,1.30
2018-03-26T06:53:49.938Z,1.40
2018-03-26T06:56:17.439Z,1.50
2018-03-26T06:58:44.938Z,1.60
2018-03-26T07:01:12.418Z,1.90
2018-03-26T07:03:39.906Z,2.20
2018-03-26T07:06:08.597Z,2.20
2018-03-26T07:08:36.105Z,2.10
2018-03-26T07:11:03.610Z,2.30
2018-03-26T07:13:31.094Z,2.30
2018-03-26T07:15:58.597Z,2.40
2018-03-26T07:18:26.069Z,2.30
2018-03-26T07:20:54.334Z,2.70
2018-03-26T07:23:22.060Z,2.60
2018-03-26T07:25:49.586Z,2.60
2018-03-26T07:28:17.076Z,2.80
2018-03-26T07:30:44.550Z,2.80
2018-03-26T07:33:12.057Z,2.80
2018-03-26T07:35:40.298Z,2.60
2018-03-26T07:38:07.770Z,2.60
2018-03-26T07:40:36.025Z,2.40
2018-03-26T07:43:03.498Z,2.40
2018-03-26T07:45:30.997Z,2.20
2018-03-26T07:47:58.478Z,2.20
2018-03-26T07:50:25.949Z,2.20
2018-03-26T07:52:53.446Z,2.30
2018-03-26T07:55:20.929Z,2.40
2018-03-26T07:57:48.701Z,2.50
2018-03-26T08:00:16.183Z,2.50
2018-03-26T08:02:43.661Z,2.50
2018-03-26T08:05:11.237Z,2.70
2018-03-26T08:07:39.478Z,3.10
2018-03-26T08:10:06.973Z,3.10
2018-03-26T08:12:35.216Z,3.30
2018-03-26T08:15:04.201Z,3.60
2018-03-26T08:17:31.712Z,3.50
2018-03-26T08:19:59.510Z,3.60
2018-03-26T08:22:27.010Z,3.70
2018-03-26T08:24:55.293Z,3.80
2018-03-26T08:27:23.537Z,3.80
2018-03-26T08:29:52.538Z,3.90
2018-03-26T08:32:20.013Z,3.90
2018-03-26T08:34:48.627Z,4.00
2018-03-26T08:37:16.117Z,4.10
2018-03-26T08:39:43.593Z,4.00
2018-03-26T08:42:11.912Z,3.90
2018-03-26T08:44:39.358Z,3.80
2018-03-26T08:47:06.853Z,3.80
2018-03-26T08:49:34.361Z,3.90
2018-03-26T08:52:03.053Z,4.10
2018-03-26T08:54:31.293Z,4.40
2018-03-26T08:56:58.805Z,4.40
2018-03-26T09:09:28.907Z,4.90
2018-03-26T09:11:56.448Z,5.20
2018-03-26T09:24:33.238Z,5.30
2018-03-26T10:56:32.009Z,10.40
2018-03-26T10:58:59.506Z,10.40
2018-03-26T11:01:27.745Z,10.30
2018-03-26T11:03:55.333Z,10.30
2018-03-26T11:06:23.577Z,10.50
2018-03-26T11:08:51.054Z,10.50
2018-03-26T11:13:53.376Z,11.00
2018-03-26T11:16:20.873Z,11.30
2018-03-26T11:18:48.369Z,11.50
2018-03-26T11:21:16.610Z,11.90
2018-03-26T11:23:45.609Z,12.10
2018-03-26T11:26:13.091Z,12.10
2018-03-26T11:28:41.365Z,12.20
2018-03-26T11:31:09.621Z,12.20
2018-03-26T11:33:37.102Z,12.20
2018-03-26T11:36:05.366Z,12.40
2018-03-26T11:38:33.642Z,12.40
2018-03-26T11:41:01.908Z,12.90
2018-03-26T11:43:29.395Z,12.90
2018-03-26T11:45:56.869Z,13.20
2018-03-26T11:48:24.390Z,13.60
2018-03-26T11:50:52.637Z,12.80
2018-03-26T11:53:20.137Z,12.80
2018-03-26T11:55:48.377Z,12.40
2018-03-26T11:58:15.850Z,12.40
2018-03-26T12:00:43.354Z,12.60
2018-03-26T12:03:11.121Z,12.90
2018-03-26T12:05:38.637Z,13.50
2018-03-26T12:08:06.878Z,14.10
2018-03-26T12:10:34.349Z,14.10
2018-03-26T12:13:01.841Z,14.50
2018-03-26T12:15:29.385Z,14.30
2018-03-26T12:17:57.649Z,14.40
2018-03-26T12:20:37.102Z,14.40
2018-03-26T12:23:16.566Z,14.30
2018-03-26T12:25:44.046Z,14.40
2018-03-26T12:28:23.433Z,14.30
2018-03-26T12:30:50.990Z,14.60
2018-03-26T12:33:19.513Z,14.60
2018-03-26T12:35:57.469Z,14.60
2018-03-26T12:38:25.722Z,15.00
2018-03-26T12:40:56.833Z,14.90
2018-03-26T12:43:24.305Z,14.90
2018-03-26T12:46:03.638Z,14.70
2018-03-26T12:48:31.114Z,14.20
2018-03-26T12:51:10.593Z,14.00
2018-03-26T12:53:38.064Z,13.80
2018-03-26T12:56:05.606Z,13.60
2018-03-26T12:58:47.978Z,13.50
2018-03-26T13:01:28.213Z,13.00
2018-03-26T13:03:55.697Z,13.00
2018-03-26T13:06:23.170Z,13.00
2018-03-26T13:08:51.425Z,12.70
2018-03-26T13:11:20.406Z,12.80
2018-03-26T13:13:47.884Z,12.80
2018-03-26T13:16:16.149Z,12.70
2018-03-26T13:18:43.625Z,12.70
2018-03-26T13:21:11.911Z,12.50
2018-03-26T13:23:40.153Z,12.50
2018-03-26T13:26:07.625Z,12.50
2018-03-26T13:28:35.126Z,12.50
2018-03-26T13:31:02.596Z,12.50
2018-03-26T13:33:30.358Z,12.30
2018-03-26T13:35:57.833Z,12.30
2018-03-26T13:38:25.313Z,12.10
2018-03-26T13:40:52.825Z,12.10
2018-03-26T13:43:20.304Z,11.90
2018-03-26T13:45:47.798Z,11.70
2018-03-26T13:48:16.077Z,11.60
2018-03-26T13:50:44.601Z,11.50
2018-03-26T13:53:12.093Z,11.50
2018-03-26T13:55:39.823Z,11.40
2018-03-26T13:58:07.326Z,11.00
2018-03-26T14:00:34.798Z,10.50
2018-03-26T14:03:03.045Z,10.70
2018-03-26T14:05:33.702Z,10.90
2018-03-26T14:08:01.949Z,11.10
2018-03-26T14:10:42.565Z,11.10
2018-03-26T14:13:22.042Z,11.10
2018-03-26T14:16:01.406Z,11.20
2018-03-26T14:18:28.908Z,11.10
2018-03-26T14:20:56.435Z,11.20
2018-03-26T14:23:24.689Z,11.10
2018-03-26T14:25:52.981Z,10.90
2018-03-26T14:28:21.238Z,10.70
2018-03-26T14:30:48.718Z,10.70
2018-03-26T14:33:17.011Z,10.60
2018-03-26T14:35:44.689Z,10.50
2018-03-26T14:38:12.205Z,10.30
2018-03-26T14:40:40.022Z,10.30
2018-03-26T14:43:07.551Z,10.20
2018-03-26T14:45:35.013Z,10.10
2018-03-26T14:48:02.491Z,10.00
2018-03-26T14:50:29.960Z,9.80
2018-03-26T14:52:57.488Z,9.90
2018-03-26T14:55:25.500Z,9.90
2018-03-26T14:57:53.096Z,9.90
2018-03-26T15:00:21.333Z,9.70
2018-03-26T15:02:48.850Z,9.70
2018-03-26T15:05:16.349Z,9.70
2018-03-26T15:07:43.995Z,9.60
2018-03-26T15:10:11.950Z,9.50
2018-03-26T15:12:39.466Z,9.40
2018-03-26T15:38:11.313Z,9.30
2018-03-26T15:40:38.785Z,9.30
2018-03-26T15:43:07.321Z,9.20
2018-03-26T15:45:37.105Z,9.10
2018-03-26T15:48:05.850Z,9.20
2018-03-26T15:50:34.540Z,9.30
2018-03-26T15:53:02.057Z,9.30
2018-03-26T15:55:30.702Z,9.20
2018-03-26T15:57:58.197Z,9.20
2018-03-26T16:00:26.881Z,9.20
2018-03-26T16:03:01.265Z,9.20
2018-03-26T16:05:29.014Z,9.20
2018-03-26T16:07:57.249Z,9.20
2018-03-26T16:10:25.861Z,9.00
2018-03-26T16:12:53.385Z,9.10
2018-03-26T16:15:22.073Z,9.00
2018-03-26T16:17:50.334Z,9.10
2018-03-26T16:20:17.810Z,9.10
2018-03-26T16:22:45.317Z,9.00
2018-03-26T16:25:12.809Z,9.00
2018-03-26T16:27:40.293Z,8.90
2018-03-26T16:30:07.798Z,8.90
2018-03-26T16:32:35.281Z,8.90
2018-03-26T16:35:03.526Z,8.70
2018-03-26T16:37:31.021Z,8.70
2018-03-26T16:39:59.544Z,8.60
2018-03-26T16:42:27.883Z,8.60
2018-03-26T16:44:56.129Z,8.50
2018-03-26T16:47:23.609Z,8.60
2018-03-26T16:49:51.861Z,8.50
2018-03-26T16:52:19.345Z,8.50
2018-03-26T16:54:47.634Z,8.40
2018-03-26T16:57:15.889Z,8.40
2018-03-26T16:59:43.358Z,8.40
2018-03-26T17:02:11.613Z,8.30
2018-03-26T17:04:39.858Z,8.30
2018-03-26T17:07:07.461Z,8.20
2018-03-26T17:09:35.713Z,8.20
2018-03-26T17:12:03.208Z,8.20
2018-03-26T17:14:30.754Z,8.10
2018-03-26T17:16:58.992Z,8.00
2018-03-26T17:19:26.485Z,8.00
2018-03-26T17:21:54.729Z,8.00
2018-03-26T17:24:22.212Z,8.00
2018-03-26T17:26:49.921Z,8.00
2018-03-26T17:29:17.889Z,8.00
2018-03-26T17:31:45.858Z,7.90
2018-03-26T17:34:13.934Z,7.90
2018-03-26T17:36:42.942Z,7.80
2018-03-26T17:39:10.525Z,7.80
2018-03-26T17:41:38.847Z,7.80
2018-03-26T17:44:06.740Z,7.80
2018-03-26T17:46:35.034Z,7.70
2018-03-26T17:49:02.521Z,7.60
2018-03-26T17:51:30.785Z,7.50
2018-03-26T17:53:58.350Z,7.50
2018-03-26T17:56:26.625Z,7.50
2018-03-26T17:58:54.885Z,7.40
2018-03-26T18:01:22.357Z,7.40
2018-03-26T18:03:50.637Z,7.30
2018-03-26T18:06:18.887Z,7.30
2018-03-26T18:08:46.381Z,7.20
2018-03-26T18:11:14.706Z,7.10
2018-03-26T18:13:42.205Z,7.10
2018-03-26T18:16:10.478Z,6.90
2018-03-26T18:18:38.717Z,6.70
2018-03-26T18:21:06.220Z,6.70
2018-03-26T18:23:34.465Z,6.60
2018-03-26T18:26:01.945Z,6.60
2018-03-26T18:28:30.201Z,6.40
2018-03-26T18:30:57.794Z,6.40
2018-03-26T18:33:25.293Z,6.40
2018-03-26T18:35:52.769Z,6.30
2018-03-26T18:38:20.246Z,6.30
2018-03-26T18:40:48.679Z,6.10
2018-03-26T18:43:16.181Z,6.10
2018-03-26T18:45:44.498Z,5.90
2018-03-26T18:50:40.988Z,5.70
2018-03-26T18:53:08.480Z,5.80
2018-03-26T18:55:36.729Z,5.70
2018-03-26T18:58:05.012Z,5.70
2018-03-26T19:00:32.489Z,5.60
2018-03-26T19:02:59.982Z,5.60
2018-03-26T19:05:27.473Z,5.60
2018-03-26T19:07:54.961Z,5.60
2018-03-26T19:10:23.988Z,5.40
2018-03-26T19:12:51.509Z,5.40
2018-03-26T19:15:19.762Z,5.20
2018-03-26T19:17:48.544Z,5.20
2018-03-26T19:20:16.073Z,5.10
2018-03-26T19:22:47.461Z,5.00
2018-03-26T19:25:20.182Z,4.90
2018-03-26T19:27:50.949Z,4.90
2018-03-26T19:30:18.693Z,4.90
2018-03-26T19:32:46.289Z,4.80
2018-03-26T19:35:13.872Z,4.60
2018-03-26T19:37:42.109Z,4.40
2018-03-26T19:40:09.654Z,4.40
2018-03-26T19:42:37.881Z,4.50
2018-03-26T19:45:05.397Z,4.60
2018-03-26T19:47:33.049Z,4.60
2018-03-26T19:50:03.259Z,4.50
2018-03-26T19:52:32.073Z,4.60
2018-03-26T19:55:00.718Z,4.60
2018-03-26T19:57:28.352Z,4.60
2018-03-26T19:59:56.625Z,4.80
2018-03-26T20:02:24.870Z,4.80
2018-03-26T20:04:52.365Z,4.80
2018-03-26T20:07:20.614Z,4.80
2018-03-26T20:09:48.089Z,4.80
2018-03-26T20:12:16.345Z,4.70
2018-03-26T20:14:43.822Z,4.70
2018-03-26T20:17:12.085Z,4.70
2018-03-26T20:19:39.566Z,4.60
2018-03-26T20:22:07.044Z,4.70
2018-03-26T20:24:34.533Z,4.70
2018-03-26T20:27:02.013Z,4.80
2018-03-26T20:29:29.585Z,4.70
2018-03-26T20:31:57.829Z,4.60
2018-03-26T20:34:25.357Z,4.60
2018-03-26T20:36:52.853Z,4.60
2018-03-26T20:39:21.833Z,4.60
2018-03-26T20:41:49.346Z,4.60
2018-03-26T20:44:16.825Z,4.70
2018-03-26T20:46:44.594Z,4.70
2018-03-26T20:49:12.109Z,4.70
2018-03-26T20:51:40.370Z,4.80
2018-03-26T20:54:07.866Z,4.80
2018-03-26T20:56:35.341Z,4.90
2018-03-26T20:59:02.961Z,4.90
2018-03-26T21:01:31.241Z,4.90
2018-03-26T21:03:58.718Z,4.90
2018-03-26T21:06:26.356Z,5.00
2018-03-26T21:08:53.908Z,5.00
2018-03-26T21:11:22.148Z,5.10
2018-03-26T21:13:49.636Z,5.10
2018-03-26T21:16:17.381Z,5.00
2018-03-26T21:18:44.876Z,5.10
2018-03-26T21:21:12.354Z,5.10
2018-03-26T21:23:39.835Z,5.00
2018-03-26T21:26:07.430Z,5.10
2018-03-26T21:28:35.686Z,5.10
2018-03-26T21:31:03.201Z,5.00
2018-03-26T21:33:30.685Z,5.00
2018-03-26T21:35:58.177Z,5.10
2018-03-26T21:38:26.439Z,5.00
2018-03-26T21:40:53.918Z,5.00
2018-03-26T21:43:22.189Z,4.80
2018-03-26T21:45:50.425Z,4.80
2018-03-26T21:48:17.914Z,4.80
2018-03-26T21:50:46.177Z,4.50
2018-03-26T21:53:14.426Z,4.60
2018-03-26T21:55:41.933Z,4.50
2018-03-26T21:58:10.173Z,4.50
2018-03-26T22:00:37.645Z,4.50
2018-03-26T22:03:05.137Z,4.50
2018-03-26T22:05:32.921Z,4.30
2018-03-26T22:08:00.443Z,4.20
2018-03-26T22:10:28.692Z,4.30
2018-03-26T22:12:56.173Z,4.30
2018-03-26T22:15:24.453Z,4.40
2018-03-26T22:17:52.694Z,4.50
2018-03-26T22:20:20.177Z,4.50
2018-03-26T22:22:48.447Z,4.50
2018-03-26T22:25:16.014Z,4.50
2018-03-26T22:27:44.265Z,4.50
2018-03-26T22:30:11.753Z,4.50
2018-03-26T22:32:39.993Z,4.40
2018-03-26T22:35:07.469Z,4.40
2018-03-26T22:37:35.734Z,4.40
2018-03-26T22:40:03.246Z,4.40
2018-03-26T22:42:30.729Z,4.50
2018-03-26T22:44:58.226Z,4.50
2018-03-26T22:47:26.473Z,4.50
2018-03-26T22:49:55.473Z,4.50
2018-03-26T22:52:22.953Z,4.50
2018-03-26T22:54:50.506Z,4.50
2018-03-26T22:57:18.786Z,4.40
2018-03-26T22:59:47.042Z,4.40
2018-03-26T23:02:14.823Z,4.40
2018-03-26T23:04:43.113Z,4.40
2018-03-26T23:07:10.655Z,4.40
2018-03-26T23:09:38.909Z,4.40
2018-03-26T23:12:06.382Z,4.40
2018-03-26T23:14:34.649Z,4.30
2018-03-26T23:17:02.126Z,4.30
2018-03-26T23:19:30.365Z,4.20
2018-03-26T23:21:57.853Z,4.10
2018-03-26T23:24:26.094Z,4.20
2018-03-26T23:26:53.593Z,4.20
2018-03-26T23:29:21.860Z,4.20
2018-03-26T23:31:50.105Z,4.30
2018-03-26T23:34:17.592Z,4.30
2018-03-26T23:36:45.081Z,4.30
2018-03-26T23:39:12.574Z,4.30
2018-03-26T23:41:40.315Z,4.30
2018-03-26T23:44:07.799Z,4.30
2018-03-26T23:46:35.295Z,4.30
2018-03-26T23:49:02.841Z,4.30
2018-03-26T23:51:31.102Z,4.40
2018-03-26T23:53:58.582Z,4.40
2018-03-26T23:56:26.820Z,4.50
2018-03-26T23:58:54.313Z,4.40
